Time;durP1;ratioP1;P1;durP2;ratioP2;P2;SDS_P1;SDS_P2;PMS_P1;PMS_P2;Temp;Humidity;BMP_temperature;BMP_pressure;BME280_temperature;BME280_humidity;BME280_pressure;Samples;Min_cycle;Max_cycle;Signal;HPM_P1;HPM_P2
2022/12/09 17:31:36;;;;;;;9.10;8.02;;;;;;;14.28;81.58;98865.13;10403856;27;97261;-80
2022/12/09 17:36:40;;;;;;;9.32;6.97;;;;;;;14.41;82.78;98873.81;10360442;27;96868;-79
2022/12/09 17:41:43;;;;;;;8.45;7.00;;;;;;;14.48;83.43;98873.22;10365473;28;98854;-80
2022/12/09 17:46:49;;;;;;;8.85;7.20;;;;;;;14.69;82.97;98881.31;10371024;27;99277;-78
2022/12/09 17:51:52;;;;;;;10.30;8.63;;;;;;;14.83;83.04;98891.66;10351826;28;96720;-78
2022/12/09 17:56:55;;;;;;;10.98;7.38;;;;;;;14.85;82.58;98903.00;10355421;28;98564;-78
2022/12/09 18:02:02;;;;;;;9.90;6.68;;;;;;;14.90;82.59;98910.56;10364738;28;97373;-78
2022/12/09 18:07:05;;;;;;;16.67;10.30;;;;;;;14.89;82.72;98909.72;10351105;28;96702;-78
2022/12/09 18:12:08;;;;;;;11.55;7.55;;;;;;;14.92;82.70;98929.84;10364783;28;99042;-79
2022/12/09 18:17:13;;;;;;;8.10;6.57;;;;;;;14.92;82.67;98933.34;10343539;28;97566;-79
2022/12/09 18:22:16;;;;;;;7.50;5.80;;;;;;;14.94;82.82;98947.28;10367389;28;96734;-78
2022/12/09 18:27:19;;;;;;;8.88;7.13;;;;;;;14.80;83.58;98955.44;10365518;28;97156;-78
2022/12/09 18:32:24;;;;;;;12.38;9.98;;;;;;;14.72;83.29;98969.28;10346693;28;96993;-80
2022/12/09 18:37:27;;;;;;;14.52;10.75;;;;;;;14.58;83.81;98971.28;10363316;28;96813;-79
2022/12/09 18:42:30;;;;;;;11.98;9.55;;;;;;;14.55;84.01;98977.69;10339517;28;97103;-80
2022/12/09 18:47:35;;;;;;;11.93;10.38;;;;;;;14.67;83.38;98994.44;10332098;28;96984;-80
2022/12/09 18:52:39;;;;;;;17.52;13.32;;;;;;;14.68;83.58;98998.75;10335966;28;96834;-79
2022/12/09 18:57:42;;;;;;;16.57;13.50;;;;;;;14.60;83.83;99004.66;10331645;28;97141;-80
2022/12/09 19:02:47;;;;;;;13.02;11.25;;;;;;;14.63;83.52;99014.16;10322515;28;97145;-78
2022/12/09 19:07:50;;;;;;;21.17;17.95;;;;;;;14.54;83.96;99026.28;10336090;28;98291;-79
2022/12/09 19:12:55;;;;;;;17.52;11.95;;;;;;;14.57;83.90;99030.50;10327739;28;99117;-79
2022/12/09 19:18:00;;;;;;;21.13;11.50;;;;;;;14.61;83.66;99030.16;10329817;28;96796;-78
2022/12/09 19:23:03;;;;;;;12.35;10.43;;;;;;;14.68;83.52;99036.66;10335131;28;97120;-80
2022/12/09 19:28:07;;;;;;;15.32;11.85;;;;;;;14.66;83.25;99035.13;10328865;28;96953;-79
2022/12/09 19:33:12;;;;;;;15.07;13.37;;;;;;;14.60;83.53;99035.56;10337008;28;96910;-79
2022/12/09 19:38:15;;;;;;;16.23;12.00;;;;;;;14.68;83.26;99047.25;10318663;28;96785;-82
2022/12/09 19:43:18;;;;;;;17.65;13.98;;;;;;;14.71;82.90;99052.31;10309860;28;96871;-79
2022/12/09 19:48:23;;;;;;;19.10;13.10;;;;;;;14.63;83.16;99057.34;10331345;28;96845;-79
2022/12/09 19:53:26;;;;;;;16.17;13.50;;;;;;;14.65;83.07;99058.09;10320659;28;99256;-80
2022/12/09 19:58:30;;;;;;;20.42;15.32;;;;;;;14.58;83.31;99063.94;10320562;28;96934;-80
2022/12/09 20:03:35;;;;;;;20.97;16.30;;;;;;;14.59;83.32;99076.25;10329116;28;96833;-79
2022/12/09 20:08:39;;;;;;;24.17;19.17;;;;;;;14.61;83.33;99079.59;10333161;28;96867;-80
2022/12/09 20:13:43;;;;;;;21.08;17.98;;;;;;;14.58;83.57;99082.47;10311114;28;97127;-79
2022/12/09 20:18:48;;;;;;;20.70;15.52;;;;;;;14.57;83.58;99105.50;10333378;28;96788;-80
2022/12/09 20:23:53;;;;;;;18.55;15.38;;;;;;;14.58;83.49;99106.31;10311423;28;96932;-81
2022/12/09 20:28:57;;;;;;;20.85;15.07;;;;;;;14.47;83.98;99111.56;10317043;28;97616;-80
2022/12/09 20:34:05;;;;;;;17.08;14.95;;;;;;;14.44;83.93;99114.41;10296574;28;96867;-81
2022/12/09 20:39:13;;;;;;;19.98;14.75;;;;;;;14.45;83.89;99110.84;10303865;28;96738;-81
2022/12/09 20:44:18;;;;;;;19.33;15.15;;;;;;;14.52;83.58;99114.72;10313099;28;96759;-79
2022/12/09 20:49:25;;;;;;;;;;;;;;;14.34;83.76;99124.84;10317299;28;97293;-80
2022/12/09 20:54:28;;;;;;;18.85;16.70;;;;;;;14.28;84.27;99135.88;10323340;28;96845;-79
2022/12/09 20:59:32;;;;;;;20.98;17.38;;;;;;;14.24;84.42;99131.78;10316062;28;97065;-78
2022/12/09 21:04:36;;;;;;;25.60;19.00;;;;;;;14.26;84.35;99147.53;10319378;28;97131;-76
2022/12/09 21:09:43;;;;;;;24.73;20.20;;;;;;;14.26;84.27;99153.69;10307953;28;96912;-79
2022/12/09 21:14:58;;;;;;;21.15;16.70;;;;;;;14.20;84.06;99167.34;10309802;28;96795;-81
2022/12/09 21:20:07;;;;;;;20.95;16.95;;;;;;;14.10;84.28;99178.66;10310964;28;97047;-79
2022/12/09 21:25:12;;;;;;;21.83;17.27;;;;;;;14.17;83.83;99180.78;10303557;28;98950;-79
2022/12/09 21:30:16;;;;;;;38.50;19.50;;;;;;;14.16;83.87;99178.25;10319307;28;97015;-78
2022/12/09 21:35:20;;;;;;;20.05;16.95;;;;;;;14.07;83.68;99184.19;10328092;28;96805;-78
2022/12/09 21:40:23;;;;;;;21.30;17.45;;;;;;;14.01;83.46;99195.16;10306697;28;98659;-81
2022/12/09 21:45:26;;;;;;;35.45;22.15;;;;;;;13.99;83.75;99210.28;10311636;28;96784;-77
2022/12/09 21:50:31;;;;;;;22.50;17.15;;;;;;;13.98;83.83;99216.53;10360842;28;96824;-81
2022/12/09 21:55:36;;;;;;;18.40;13.35;;;;;;;13.86;83.82;99228.81;10321434;28;97584;-82
2022/12/09 22:00:40;;;;;;;21.52;13.32;;;;;;;13.92;83.64;99235.50;10340412;28;97264;-81
2022/12/09 22:05:50;;;;;;;21.02;15.10;;;;;;;13.94;83.75;99246.78;10320296;28;96764;-82
2022/12/09 22:11:00;;;;;;;22.23;15.00;;;;;;;14.01;83.75;99248.06;10329698;28;96826;-82
2022/12/09 22:16:07;;;;;;;29.33;17.00;;;;;;;14.06;83.34;99254.75;10335852;28;97247;-82
2022/12/09 22:21:15;;;;;;;28.77;17.45;;;;;;;14.07;83.55;99260.91;10334576;28;99074;-82
2022/12/09 22:26:28;;;;;;;49.33;21.40;;;;;;;14.07;83.86;99258.25;10329314;28;97031;-82
2022/12/09 22:31:35;;;;;;;54.65;16.83;;;;;;;14.08;83.82;99265.22;10349171;28;97239;-83
2022/12/09 22:36:40;;;;;;;110.95;20.60;;;;;;;14.07;84.08;99263.56;10349803;28;98903;-82
2022/12/09 22:41:44;;;;;;;36.70;16.00;;;;;;;14.09;84.38;99274.88;10349729;28;96968;-82
2022/12/09 22:46:49;;;;;;;62.80;18.40;;;;;;;14.03;84.46;99289.38;10354527;28;99135;-82
2022/12/09 22:51:55;;;;;;;52.17;16.58;;;;;;;14.10;84.26;99305.66;10350694;28;98244;-83
2022/12/09 22:57:02;;;;;;;107.03;19.75;;;;;;;14.12;84.19;99306.41;10325092;28;96886;-82
2022/12/09 23:02:05;;;;;;;75.05;19.13;;;;;;;14.07;84.19;99308.53;10354714;28;96909;-82
2022/12/09 23:07:17;;;;;;;101.30;20.67;;;;;;;13.94;84.55;99315.56;10355914;28;97346;-84
2022/12/09 23:12:21;;;;;;;68.57;19.90;;;;;;;13.94;84.72;99327.00;10369074;28;97548;-83
2022/12/09 23:17:27;;;;;;;43.33;18.48;;;;;;;14.01;84.49;99335.34;10325645;28;97324;-83
2022/12/09 23:22:33;;;;;;;97.70;20.83;;;;;;;13.84;84.90;99352.38;10356956;28;97116;-83
2022/12/09 23:27:39;;;;;;;130.32;23.55;;;;;;;13.85;85.17;99348.75;10330627;28;99001;-83
2022/12/09 23:32:42;;;;;;;71.78;20.75;;;;;;;13.94;84.55;99357.88;10328266;28;96843;-84
2022/12/09 23:37:49;;;;;;;184.73;24.90;;;;;;;13.85;85.23;99356.69;10337743;28;97694;-82
2022/12/09 23:42:56;;;;;;;84.10;22.48;;;;;;;13.85;85.17;99358.50;10321293;28;98321;-83
2022/12/09 23:48:46;;;;;;;317.08;32.28;;;;;;;13.71;85.53;99372.63;10339938;28;97659;-86
2022/12/09 23:53:52;;;;;;;79.75;22.60;;;;;;;13.76;85.59;99380.28;10331426;28;98181;-80
2022/12/09 23:58:56;;;;;;;34.88;19.98;;;;;;;13.78;85.41;99384.50;10325697;28;97394;-79
